createdAt,value
2022-12-19T00:02:12.241Z,102894.63
2022-12-19T00:08:17.961Z,102891.88
2022-12-19T00:14:21.416Z,102903.56
2022-12-19T00:20:23.370Z,102903.81
2022-12-19T00:26:30.451Z,102913.53
2022-12-19T00:32:32.561Z,102915.38
2022-12-19T00:38:35.232Z,102918.19
2022-12-19T00:44:39.750Z,102924.03
2022-12-19T00:50:41.869Z,102933.81
2022-12-19T00:56:43.823Z,102946.84
2022-12-19T01:02:46.162Z,102937.88
2022-12-19T01:08:49.203Z,102944.66
2022-12-19T01:14:54.299Z,102947.94
2022-12-19T01:21:01.156Z,102942.16
2022-12-19T01:27:03.575Z,102939.72
2022-12-19T01:33:12.566Z,102947.97
2022-12-19T01:39:14.581Z,102957.09
2022-12-19T01:45:16.453Z,102959.56
2022-12-19T01:51:24.789Z,102958.09
2022-12-19T01:57:27.251Z,102966.88
2022-12-19T02:03:32.387Z,102961.97
2022-12-19T02:09:36.219Z,102972.41
2022-12-19T02:16:30.062Z,102966.56
2022-12-19T02:22:51.629Z,102972.56
2022-12-19T02:29:18.047Z,102975.31
2022-12-19T02:35:37.750Z,102965.75
2022-12-19T02:41:47.731Z,102968.69
2022-12-19T02:48:04.508Z,102972.06
2022-12-19T02:54:07.465Z,102960.53
2022-12-19T03:00:16.318Z,102970.13
2022-12-19T03:06:38.685Z,102966.81
2022-12-19T03:12:54.386Z,102975.91
2022-12-19T03:18:58.425Z,102980.81
2022-12-19T03:25:08.513Z,102976.41
2022-12-19T03:31:13.083Z,102977.50
2022-12-19T03:37:19.355Z,102981.44
2022-12-19T03:43:24.457Z,102993.91
2022-12-19T03:49:28.029Z,102992.69
2022-12-19T03:55:45.156Z,103010.31
2022-12-19T04:01:48.439Z,103023.22
2022-12-19T04:07:54.324Z,103034.09
2022-12-19T04:14:02.557Z,103031.31
2022-12-19T04:20:10.832Z,103037.66
2022-12-19T04:26:15.492Z,103052.03
2022-12-19T04:32:19.403Z,103056.69
2022-12-19T04:38:22.535Z,103079.47
2022-12-19T04:44:24.898Z,103077.38
2022-12-19T04:50:27.605Z,103081.53
2022-12-19T04:56:29.587Z,103091.31
2022-12-19T05:02:33.333Z,103087.69
2022-12-19T05:08:37.376Z,103095.78
2022-12-19T05:14:39.335Z,103107.38
2022-12-19T05:20:41.301Z,103118.31
2022-12-19T05:26:44.356Z,103113.00
2022-12-19T05:32:46.372Z,103117.44
2022-12-19T05:38:51.411Z,103132.31
2022-12-19T05:44:53.419Z,103153.69
2022-12-19T05:50:55.342Z,103129.47
2022-12-19T05:57:00.725Z,103139.75
2022-12-19T06:03:06.117Z,103148.03
2022-12-19T06:09:09.063Z,103165.94
2022-12-19T06:15:12.617Z,103161.81
2022-12-19T06:21:19.138Z,103183.69
2022-12-19T06:27:21.108Z,103185.34
2022-12-19T06:33:26.544Z,103191.63
2022-12-19T06:39:29.585Z,103199.69
2022-12-19T06:45:33.193Z,103203.47
2022-12-19T06:51:36.636Z,103207.47
2022-12-19T06:57:46.150Z,103210.28
2022-12-19T07:03:49.556Z,103219.47
2022-12-19T07:09:51.684Z,103237.03
2022-12-19T07:16:01.308Z,103246.00
2022-12-19T07:22:04.341Z,103259.53
2022-12-19T07:28:10.813Z,103254.16
2022-12-19T07:34:12.920Z,103257.19
2022-12-19T07:40:15.220Z,103270.50
2022-12-19T07:46:17.427Z,103263.72
2022-12-19T07:52:19.497Z,103273.53
2022-12-19T07:58:21.600Z,103270.16
2022-12-19T08:04:28.753Z,103278.06
2022-12-19T08:10:32.048Z,103277.25
2022-12-19T08:16:49.358Z,103280.69
2022-12-19T08:23:02.551Z,103272.75
2022-12-19T08:29:12.363Z,103273.97
2022-12-19T08:35:18.139Z,103280.41
2022-12-19T08:41:21.786Z,103277.91
2022-12-19T08:47:26.670Z,103284.38
2022-12-19T08:53:31.475Z,103283.91
2022-12-19T08:59:34.053Z,103279.34
2022-12-19T09:06:03.259Z,103267.34
2022-12-19T09:12:00.527Z,103265.88
2022-12-19T09:18:02.588Z,103267.13
2022-12-19T09:24:07.838Z,103264.59
2022-12-19T09:30:13.483Z,103259.38
2022-12-19T09:36:19.859Z,103256.09
2022-12-19T09:42:56.732Z,103246.03
2022-12-19T09:49:05.017Z,103237.59
2022-12-19T09:55:17.226Z,103243.78
2022-12-19T10:01:40.588Z,103236.28
2022-12-19T10:08:07.231Z,103226.19
2022-12-19T10:14:25.153Z,103222.28
2022-12-19T10:20:45.895Z,103208.78
2022-12-19T10:26:52.597Z,103223.91
2022-12-19T10:33:19.871Z,103215.72
2022-12-19T10:39:55.387Z,103224.91
2022-12-19T10:46:07.977Z,103221.47
2022-12-19T10:52:12.193Z,103203.41
2022-12-19T10:58:33.846Z,103201.13
2022-12-19T11:04:36.826Z,103208.59
2022-12-19T11:12:37.146Z,103205.31
2022-12-19T11:22:04.976Z,103196.19
2022-12-19T11:30:08.859Z,103205.31
2022-12-19T11:37:30.492Z,103197.50
2022-12-19T11:44:04.608Z,103201.91
2022-12-19T11:50:30.098Z,103186.63
2022-12-19T11:56:32.487Z,103192.19
2022-12-19T12:03:27.171Z,103179.97
2022-12-19T12:15:19.957Z,103183.06
2022-12-19T12:28:42.780Z,103178.66
2022-12-19T12:30:18.147Z,103192.97
2022-12-19T12:31:30.804Z,103186.63
2022-12-19T12:38:10.852Z,103180.97
2022-12-19T12:43:21.793Z,103192.50
2022-12-19T12:49:45.924Z,103185.19
2022-12-19T12:55:50.433Z,103176.06
2022-12-19T13:02:17.661Z,103192.16
2022-12-19T13:08:32.901Z,103197.22
2022-12-19T13:14:36.219Z,103202.09
2022-12-19T13:20:45.460Z,103205.66
2022-12-19T13:26:51.267Z,103196.06
2022-12-19T13:32:55.932Z,103185.81
2022-12-19T13:39:55.542Z,103197.03
2022-12-19T13:45:27.724Z,103200.13
2022-12-19T13:51:57.192Z,103176.97
2022-12-19T13:58:07.312Z,103210.81
2022-12-19T14:04:15.600Z,103211.59
2022-12-19T14:11:39.470Z,103205.84
2022-12-19T14:17:18.967Z,103209.31
2022-12-19T14:23:36.995Z,103212.84
2022-12-19T14:30:30.090Z,103205.63
2022-12-19T14:36:34.926Z,103205.66
2022-12-19T14:43:56.903Z,103220.19
2022-12-19T14:54:09.466Z,103214.28
2022-12-19T14:56:29.916Z,103221.63
2022-12-19T15:02:33.360Z,103218.09
2022-12-19T15:09:17.852Z,103214.81
2022-12-19T15:15:18.715Z,103206.34
2022-12-19T15:21:26.455Z,103207.44
2022-12-19T15:27:30.985Z,103196.19
2022-12-19T15:33:33.570Z,103202.03
2022-12-19T15:39:35.671Z,103200.81
2022-12-19T15:45:38.009Z,103197.28
2022-12-19T15:51:43.281Z,103200.09
2022-12-19T15:57:49.368Z,103215.47
2022-12-19T16:03:51.718Z,103222.31
2022-12-19T16:09:56.729Z,103210.06
2022-12-19T16:15:59.222Z,103229.69
2022-12-19T16:22:05.020Z,103234.63
2022-12-19T16:28:14.737Z,103237.25
2022-12-19T16:34:23.607Z,103244.13
2022-12-19T16:40:27.061Z,103248.31
2022-12-19T16:46:34.647Z,103241.25
2022-12-19T16:52:42.818Z,103245.44
2022-12-19T16:58:47.394Z,103243.34
2022-12-19T17:04:54.358Z,103240.38
2022-12-19T17:10:58.785Z,103253.88
2022-12-19T17:17:01.028Z,103258.84
2022-12-19T17:23:03.715Z,103260.53
2022-12-19T17:29:06.720Z,103266.25
2022-12-19T17:35:27.311Z,103270.22
2022-12-19T17:41:31.350Z,103273.19
2022-12-19T17:47:34.577Z,103258.25
2022-12-19T17:53:37.532Z,103270.88
2022-12-19T17:59:39.560Z,103276.50
2022-12-19T18:05:42.648Z,103268.84
2022-12-19T18:11:44.684Z,103281.69
2022-12-19T18:17:51.256Z,103259.59
